createdAt,value
2023-05-04T00:00:21.011Z,7.50
2023-05-04T00:01:20.994Z,7.40
2023-05-04T00:02:21.098Z,7.80
2023-05-04T00:03:21.055Z,7.30
2023-05-04T00:04:20.994Z,9.00
2023-05-04T00:05:20.944Z,9.70
2023-05-04T00:06:20.911Z,7.90
2023-05-04T00:07:20.911Z,8.60
2023-05-04T00:08:20.887Z,9.00
2023-05-04T00:09:20.881Z,8.20
2023-05-04T00:10:20.871Z,7.60
2023-05-04T00:11:20.842Z,7.60
2023-05-04T00:12:20.831Z,9.20
2023-05-04T00:13:20.821Z,8.00
2023-05-04T00:14:20.811Z,7.40
2023-05-04T00:15:20.800Z,7.50
2023-05-04T00:16:20.802Z,7.90
2023-05-04T00:17:20.816Z,7.50
2023-05-04T00:18:20.751Z,7.70
2023-05-04T00:19:20.754Z,9.80
2023-05-04T00:20:20.747Z,8.30
2023-05-04T00:21:20.713Z,9.30
2023-05-04T00:22:20.692Z,7.60
2023-05-04T00:23:20.704Z,9.40
2023-05-04T00:24:20.690Z,7.90
2023-05-04T00:25:20.689Z,8.60
2023-05-04T00:26:20.658Z,7.50
2023-05-04T00:27:20.633Z,8.20
2023-05-04T00:28:20.639Z,8.40
2023-05-04T00:29:20.611Z,7.90
2023-05-04T00:30:20.603Z,11.10
2023-05-04T00:31:20.633Z,8.00
2023-05-04T00:32:20.559Z,8.00
2023-05-04T00:33:20.574Z,11.10
2023-05-04T00:34:20.536Z,7.90
2023-05-04T00:35:20.535Z,7.80
2023-05-04T00:36:20.517Z,7.90
2023-05-04T00:37:20.518Z,8.00
2023-05-04T00:38:20.499Z,7.90
2023-05-04T00:39:20.492Z,10.00
2023-05-04T00:40:20.474Z,8.10
2023-05-04T00:41:20.456Z,7.90
2023-05-04T00:42:20.461Z,8.70
2023-05-04T00:43:20.440Z,7.80
2023-05-04T00:44:20.415Z,7.60
2023-05-04T00:45:20.413Z,8.00
2023-05-04T00:46:20.391Z,8.50
2023-05-04T00:47:20.442Z,8.60
2023-05-04T00:48:20.358Z,8.00
2023-05-04T00:49:20.346Z,7.60
2023-05-04T00:50:20.341Z,9.50
2023-05-04T00:51:20.333Z,7.90
2023-05-04T00:52:20.324Z,10.70
2023-05-04T00:53:20.310Z,8.00
2023-05-04T00:54:20.285Z,8.90
2023-05-04T00:55:20.272Z,9.20
2023-05-04T00:56:20.280Z,8.10
2023-05-04T00:57:20.257Z,8.60
2023-05-04T00:58:20.229Z,9.70
2023-05-04T00:59:20.219Z,8.10
2023-05-04T01:00:20.197Z,8.60
2023-05-04T01:01:20.233Z,8.10
2023-05-04T01:02:20.194Z,8.90
2023-05-04T01:03:20.215Z,8.00
2023-05-04T01:04:20.150Z,8.90
2023-05-04T01:05:20.138Z,10.10
2023-05-04T01:06:20.140Z,8.50
2023-05-04T01:07:20.123Z,8.90
2023-05-04T01:08:20.101Z,8.80
2023-05-04T01:09:20.079Z,9.90
2023-05-04T01:10:20.084Z,9.00
2023-05-04T01:11:20.080Z,8.90
2023-05-04T01:12:20.047Z,9.30
2023-05-04T01:13:20.048Z,8.60
2023-05-04T01:14:20.022Z,8.30
2023-05-04T01:15:20.040Z,9.90
2023-05-04T01:16:20.043Z,9.10
2023-05-04T01:17:19.994Z,9.10
2023-05-04T01:18:20.088Z,9.30
2023-05-04T01:19:19.971Z,9.50
2023-05-04T01:20:19.978Z,8.80
2023-05-04T01:21:19.948Z,8.30
2023-05-04T01:22:19.928Z,8.50
2023-05-04T01:23:19.922Z,8.60
2023-05-04T01:24:19.917Z,8.80
2023-05-04T01:25:19.906Z,9.40
2023-05-04T01:26:19.880Z,9.30
2023-05-04T01:27:19.886Z,11.30
2023-05-04T01:28:19.854Z,8.80
2023-05-04T01:29:19.858Z,9.00
2023-05-04T01:30:19.846Z,8.80
2023-05-04T01:31:19.840Z,11.10
2023-05-04T01:32:19.813Z,8.80
2023-05-04T01:33:19.820Z,10.50
2023-05-04T01:34:19.817Z,9.00
2023-05-04T01:35:19.826Z,9.70
2023-05-04T01:36:19.829Z,8.60
2023-05-04T01:37:19.772Z,8.50
2023-05-04T01:38:19.747Z,8.90
2023-05-04T01:39:19.743Z,9.40
2023-05-04T01:40:19.706Z,10.20
2023-05-04T01:41:19.696Z,9.90
2023-05-04T01:42:19.681Z,9.90
2023-05-04T01:43:19.698Z,10.50
2023-05-04T01:44:19.652Z,9.00
2023-05-04T01:45:19.668Z,9.50
2023-05-04T01:46:19.659Z,9.50
2023-05-04T01:47:19.650Z,9.10
2023-05-04T01:48:19.617Z,10.90
2023-05-04T01:49:19.590Z,9.80
2023-05-04T01:50:19.564Z,9.70
2023-05-04T01:51:19.559Z,9.00
2023-05-04T01:52:19.563Z,9.00
2023-05-04T01:53:19.559Z,13.30
2023-05-04T01:54:19.549Z,10.60
2023-05-04T01:55:19.518Z,9.90
2023-05-04T01:56:19.500Z,9.60
2023-05-04T01:57:19.501Z,9.40
2023-05-04T01:58:19.492Z,9.00
2023-05-04T01:59:19.469Z,9.40
2023-05-04T02:00:19.459Z,9.90
2023-05-04T02:01:19.459Z,10.60
2023-05-04T02:02:19.437Z,10.00
2023-05-04T02:03:19.523Z,8.70
2023-05-04T02:04:19.385Z,10.70
2023-05-04T02:05:19.408Z,9.70
2023-05-04T02:06:19.378Z,9.40
2023-05-04T02:07:19.389Z,9.70
2023-05-04T02:08:19.329Z,9.00
2023-05-04T02:09:19.338Z,9.90
2023-05-04T02:10:19.308Z,10.10
2023-05-04T02:11:19.313Z,10.40
2023-05-04T02:12:19.300Z,9.70
2023-05-04T02:13:19.325Z,9.80
2023-05-04T02:14:19.272Z,10.20
2023-05-04T02:15:19.258Z,9.00
2023-05-04T02:16:19.310Z,9.40
2023-05-04T02:17:19.237Z,11.30
2023-05-04T02:18:19.222Z,10.20
2023-05-04T02:19:19.211Z,9.40
2023-05-04T02:20:19.193Z,9.80
2023-05-04T02:21:19.194Z,10.20
2023-05-04T02:22:19.167Z,10.00
2023-05-04T02:23:19.159Z,12.30
2023-05-04T02:24:19.157Z,9.80
2023-05-04T02:25:19.142Z,10.70
2023-05-04T02:26:19.122Z,9.60
2023-05-04T02:27:19.116Z,12.00
2023-05-04T02:28:19.087Z,10.50
2023-05-04T02:29:19.080Z,10.70
2023-05-04T02:30:19.064Z,10.60
2023-05-04T02:31:19.086Z,10.40
2023-05-04T02:32:19.047Z,10.00
2023-05-04T02:33:19.032Z,10.70
2023-05-04T02:34:19.022Z,11.70
2023-05-04T02:35:19.021Z,10.40
2023-05-04T02:36:18.995Z,10.90
2023-05-04T02:37:18.978Z,10.20
2023-05-04T02:38:18.969Z,10.10
2023-05-04T02:39:18.962Z,10.60
2023-05-04T02:40:18.952Z,10.50
2023-05-04T02:41:18.943Z,10.10
2023-05-04T02:42:18.909Z,11.20
2023-05-04T02:43:18.908Z,11.00
2023-05-04T02:44:18.903Z,9.90
2023-05-04T02:45:18.874Z,10.30
2023-05-04T02:46:18.948Z,10.70
2023-05-04T02:47:18.857Z,10.90
2023-05-04T02:48:18.834Z,10.30
2023-05-04T02:49:18.838Z,11.40
2023-05-04T02:50:18.812Z,11.20
2023-05-04T02:51:18.799Z,10.10
2023-05-04T02:52:18.790Z,11.80
2023-05-04T02:53:18.789Z,11.30
2023-05-04T02:54:18.779Z,10.50
2023-05-04T02:55:18.756Z,11.30
2023-05-04T02:56:18.744Z,10.40
2023-05-04T02:57:18.733Z,10.60
2023-05-04T02:58:18.732Z,9.80
2023-05-04T02:59:18.714Z,11.10
2023-05-04T03:00:18.702Z,10.50
2023-05-04T03:01:18.715Z,12.60
2023-05-04T03:02:18.676Z,10.20
2023-05-04T03:03:18.661Z,10.80
2023-05-04T03:04:18.691Z,10.70
2023-05-04T03:05:18.629Z,10.50
2023-05-04T03:06:18.633Z,12.40
2023-05-04T03:07:18.594Z,10.60
2023-05-04T03:08:18.602Z,10.60
2023-05-04T03:09:18.581Z,12.60
2023-05-04T03:10:18.563Z,10.90
2023-05-04T03:11:18.552Z,11.10
2023-05-04T03:12:18.556Z,10.50
2023-05-04T03:13:18.613Z,11.10
2023-05-04T03:14:18.527Z,14.80
2023-05-04T03:15:18.506Z,10.70
2023-05-04T03:16:18.531Z,11.00
2023-05-04T03:17:18.470Z,11.60
2023-05-04T03:18:18.466Z,11.40
2023-05-04T03:19:18.452Z,11.20
2023-05-04T03:20:18.446Z,12.20
2023-05-04T03:21:18.430Z,11.60
2023-05-04T03:22:18.421Z,12.70
2023-05-04T03:23:18.415Z,11.40
2023-05-04T03:24:18.397Z,11.60
2023-05-04T03:25:18.419Z,11.70
2023-05-04T03:26:18.376Z,11.80
2023-05-04T03:27:18.364Z,11.50
2023-05-04T03:28:18.337Z,12.20
2023-05-04T03:29:18.324Z,11.40
2023-05-04T03:30:18.317Z,12.10
2023-05-04T03:31:18.368Z,11.20
2023-05-04T03:32:18.290Z,12.10
2023-05-04T03:33:18.272Z,11.40
2023-05-04T03:34:18.261Z,13.30
2023-05-04T03:35:24.318Z,11.40
2023-05-04T03:36:19.269Z,12.40
2023-05-04T03:37:18.222Z,12.80
2023-05-04T03:38:18.214Z,12.10
2023-05-04T03:39:18.190Z,12.70
2023-05-04T03:40:18.210Z,11.10
2023-05-04T03:41:18.177Z,11.70
2023-05-04T03:42:18.168Z,11.60
2023-05-04T03:43:18.144Z,11.80
2023-05-04T03:44:18.160Z,12.70
2023-05-04T03:45:18.122Z,11.70
2023-05-04T03:46:18.166Z,10.90
2023-05-04T03:47:18.089Z,11.70
2023-05-04T03:48:18.110Z,10.40
2023-05-04T03:49:18.065Z,10.70
2023-05-04T04:02:56.638Z,12.50
2023-05-04T04:03:56.582Z,13.60
2023-05-04T04:04:56.485Z,11.20
2023-05-04T04:05:56.475Z,11.10
2023-05-04T04:06:56.451Z,11.60
2023-05-04T04:07:56.456Z,10.90
2023-05-04T04:08:56.448Z,11.80
2023-05-04T04:09:56.415Z,10.20
2023-05-04T04:10:56.420Z,11.30
2023-05-04T04:11:56.408Z,10.80
2023-05-04T04:12:56.466Z,12.50
2023-05-04T04:13:56.374Z,10.70
2023-05-04T04:14:56.364Z,10.80
2023-05-04T04:15:56.371Z,11.00
2023-05-04T04:16:56.335Z,10.70
2023-05-04T04:17:56.382Z,12.80
2023-05-04T04:18:56.325Z,13.20
2023-05-04T04:19:56.277Z,10.90
2023-05-04T04:20:56.291Z,12.60
2023-05-04T04:21:56.273Z,11.00
2023-05-04T04:22:56.272Z,11.10
2023-05-04T04:23:56.254Z,11.30
2023-05-04T04:24:56.225Z,11.10
2023-05-04T04:25:56.214Z,10.70
2023-05-04T04:26:56.218Z,10.20
2023-05-04T04:27:56.225Z,13.90
2023-05-04T04:28:56.178Z,12.40
2023-05-04T04:29:56.161Z,14.30
2023-05-04T04:30:56.168Z,11.50
2023-05-04T04:31:56.210Z,12.90
2023-05-04T04:32:56.168Z,10.50
2023-05-04T04:33:56.114Z,11.50
2023-05-04T04:34:56.089Z,10.50
2023-05-04T04:35:56.088Z,10.60
2023-05-04T04:36:56.083Z,10.90
2023-05-04T04:37:56.056Z,11.90
2023-05-04T04:38:56.054Z,11.90
2023-05-04T04:39:56.055Z,10.60
2023-05-04T04:40:56.029Z,10.70
2023-05-04T04:41:56.020Z,11.70
2023-05-04T04:42:55.994Z,10.90
2023-05-04T04:43:55.989Z,13.40
2023-05-04T04:44:55.968Z,11.80
2023-05-04T04:45:55.962Z,10.70
2023-05-04T04:46:55.993Z,10.80
2023-05-04T04:47:55.970Z,11.20
2023-05-04T04:48:55.915Z,10.70
2023-05-04T04:49:55.919Z,10.20
2023-05-04T04:50:55.902Z,10.40
2023-05-04T04:51:55.886Z,10.20
2023-05-04T04:52:55.861Z,12.40
2023-05-04T04:53:55.857Z,12.90
2023-05-04T04:54:55.826Z,14.20
2023-05-04T04:55:55.839Z,10.60
2023-05-04T04:56:55.812Z,10.90
2023-05-04T04:57:55.795Z,10.20
2023-05-04T04:58:55.784Z,9.80
2023-05-04T04:59:55.816Z,10.10
2023-05-04T05:00:55.801Z,10.40
2023-05-04T05:01:55.746Z,12.10
2023-05-04T05:02:55.823Z,10.20
2023-05-04T05:03:55.721Z,9.60
2023-05-04T05:04:55.790Z,10.40
2023-05-04T05:05:55.716Z,11.20
2023-05-04T05:06:55.688Z,9.50
2023-05-04T05:07:55.702Z,10.40
2023-05-04T05:08:55.672Z,13.40
2023-05-04T05:09:55.657Z,9.90
2023-05-04T05:10:55.629Z,10.50
2023-05-04T05:11:55.633Z,10.10
2023-05-04T05:12:55.665Z,13.40
2023-05-04T05:13:55.602Z,10.40
2023-05-04T05:14:55.592Z,10.50
2023-05-04T05:15:55.581Z,10.20
2023-05-04T05:16:55.582Z,9.60
2023-05-04T05:17:55.603Z,10.00
2023-05-04T05:18:55.540Z,10.60
2023-05-04T05:19:55.536Z,11.10
2023-05-04T05:20:55.505Z,9.70
2023-05-04T05:21:55.501Z,10.20
2023-05-04T05:22:55.490Z,9.30
2023-05-04T05:23:55.480Z,9.30
2023-05-04T05:24:55.450Z,9.50
2023-05-04T05:25:55.449Z,10.30
2023-05-04T05:26:55.429Z,8.60
2023-05-04T05:27:55.424Z,8.40
2023-05-04T05:28:55.522Z,8.80
2023-05-04T05:29:55.388Z,8.40
2023-05-04T05:30:55.516Z,8.70
2023-05-04T05:31:55.362Z,10.30
2023-05-04T05:32:55.406Z,9.30
2023-05-04T05:33:55.347Z,9.30
2023-05-04T05:34:55.319Z,8.80
2023-05-04T05:35:55.307Z,8.20
2023-05-04T05:36:55.311Z,8.60
2023-05-04T05:37:55.288Z,8.60
2023-05-04T05:38:55.267Z,8.20
2023-05-04T05:39:55.271Z,7.60
2023-05-04T05:40:55.236Z,7.40
2023-05-04T05:41:55.245Z,9.40
2023-05-04T05:42:55.245Z,10.20
2023-05-04T05:43:55.206Z,8.20
2023-05-04T05:44:55.187Z,8.70
2023-05-04T05:45:55.197Z,7.50
2023-05-04T05:46:55.178Z,8.20
2023-05-04T05:47:55.251Z,9.30
2023-05-04T05:48:55.135Z,7.80
2023-05-04T05:49:55.133Z,7.50
2023-05-04T05:50:55.105Z,7.70
2023-05-04T05:51:55.100Z,8.70
2023-05-04T05:52:55.079Z,7.70
2023-05-04T05:53:55.064Z,11.00
2023-05-04T05:54:55.074Z,8.10
2023-05-04T05:55:55.031Z,7.30
2023-05-04T05:56:55.028Z,10.80
2023-05-04T05:57:55.009Z,6.90
2023-05-04T05:58:54.997Z,7.70
2023-05-04T05:59:54.979Z,9.70
2023-05-04T06:00:55.006Z,8.70
2023-05-04T06:01:54.977Z,9.60
2023-05-04T06:02:55.042Z,9.30
2023-05-04T06:03:55.077Z,9.40
2023-05-04T06:04:55.002Z,10.00
2023-05-04T06:05:54.917Z,6.70
2023-05-04T06:06:54.885Z,7.20
2023-05-04T06:07:54.882Z,7.60
2023-05-04T06:08:54.861Z,6.70
2023-05-04T06:09:54.855Z,8.50
2023-05-04T06:10:54.834Z,8.20
2023-05-04T06:11:55.643Z,7.20
2023-05-04T06:12:54.877Z,7.90
2023-05-04T06:13:54.818Z,7.50
2023-05-04T06:14:54.791Z,7.00
2023-05-04T06:15:54.865Z,9.10
2023-05-04T06:16:54.752Z,9.30
2023-05-04T06:17:54.766Z,7.80
2023-05-04T06:18:54.726Z,6.90
2023-05-04T06:19:54.739Z,8.40
2023-05-04T06:20:54.696Z,9.60
2023-05-04T06:21:54.708Z,6.80
2023-05-04T06:22:54.677Z,7.40
2023-05-04T06:23:54.675Z,8.40
2023-05-04T06:24:59.585Z,8.70
2023-05-04T06:25:55.652Z,12.10
2023-05-04T06:26:54.626Z,20.50
2023-05-04T06:27:54.628Z,16.30
2023-05-04T06:28:54.624Z,13.40
2023-05-04T06:29:54.608Z,12.70
2023-05-04T06:30:54.584Z,10.60
2023-05-04T06:31:54.652Z,10.90
2023-05-04T06:32:54.607Z,6.80
2023-05-04T06:33:54.577Z,8.70
2023-05-04T06:34:54.523Z,8.70
2023-05-04T06:35:54.509Z,8.20
2023-05-04T06:36:54.515Z,6.40
2023-05-04T06:37:54.485Z,11.00
2023-05-04T06:38:54.470Z,7.80
2023-05-04T06:39:54.480Z,7.90
2023-05-04T06:40:54.457Z,5.60
2023-05-04T06:41:54.436Z,6.00
2023-05-04T06:42:54.422Z,9.30
2023-05-04T06:43:55.259Z,10.10
2023-05-04T06:44:54.390Z,6.60
2023-05-04T06:45:54.461Z,6.80
2023-05-04T06:46:54.366Z,8.30
2023-05-04T06:47:54.389Z,8.80
2023-05-04T06:48:54.324Z,8.90
2023-05-04T06:49:54.322Z,6.50
2023-05-04T06:50:54.314Z,10.80
2023-05-04T06:51:54.290Z,9.40
2023-05-04T06:52:54.293Z,7.60
2023-05-04T06:53:54.281Z,8.90
2023-05-04T06:54:54.252Z,5.70
2023-05-04T06:55:54.268Z,8.40
2023-05-04T06:56:54.238Z,8.30
2023-05-04T06:57:54.239Z,11.50
2023-05-04T06:58:54.219Z,14.60
2023-05-04T06:59:54.197Z,12.50
2023-05-04T07:00:54.202Z,10.40
2023-05-04T07:01:54.188Z,8.30
2023-05-04T07:02:54.217Z,8.10
2023-05-04T07:03:54.173Z,9.60
2023-05-04T07:04:54.123Z,8.00
2023-05-04T07:05:54.130Z,5.70
2023-05-04T07:06:54.112Z,6.70
2023-05-04T07:07:54.093Z,5.60
2023-05-04T07:08:54.080Z,7.70
2023-05-04T07:09:54.059Z,7.90
2023-05-04T07:10:54.058Z,6.30
2023-05-04T07:11:54.058Z,6.20
2023-05-04T07:12:54.053Z,6.70
2023-05-04T07:13:54.010Z,7.40
2023-05-04T07:14:53.993Z,6.20
2023-05-04T07:15:54.017Z,6.10
2023-05-04T07:16:53.969Z,5.50
2023-05-04T07:17:53.990Z,5.70
2023-05-04T07:18:53.940Z,7.30
2023-05-04T07:19:53.936Z,7.20
2023-05-04T07:21:01.563Z,7.80
2023-05-04T07:21:54.908Z,6.90
2023-05-04T07:22:53.921Z,7.80
2023-05-04T07:23:53.880Z,8.40
2023-05-04T07:24:53.873Z,4.60
2023-05-04T07:25:53.901Z,11.00
2023-05-04T07:26:53.825Z,5.70
2023-05-04T07:27:53.825Z,5.70
2023-05-04T07:28:53.804Z,9.40
2023-05-04T07:29:53.812Z,6.90
2023-05-04T07:30:53.791Z,6.80
2023-05-04T07:31:53.808Z,5.70
2023-05-04T07:32:53.795Z,5.40
2023-05-04T07:33:53.746Z,5.80
2023-05-04T07:34:53.743Z,5.60
2023-05-04T07:35:53.722Z,5.50
2023-05-04T07:36:53.695Z,5.10
2023-05-04T07:37:53.696Z,6.60
2023-05-04T07:38:53.671Z,5.70
2023-05-04T07:39:53.698Z,5.50
2023-05-04T07:40:53.661Z,6.80
2023-05-04T07:41:53.643Z,5.00
2023-05-04T07:42:53.636Z,4.90
2023-05-04T07:43:53.620Z,4.60
2023-05-04T07:44:53.617Z,5.70
2023-05-04T07:45:53.630Z,5.70
2023-05-04T07:46:53.574Z,4.20
2023-05-04T07:47:53.628Z,10.50
2023-05-04T07:48:53.601Z,4.90
2023-05-04T07:49:53.550Z,5.40
2023-05-04T07:50:53.539Z,8.00
2023-05-04T07:51:53.513Z,5.20
2023-05-04T07:52:53.499Z,7.30
2023-05-04T07:53:53.486Z,6.00
2023-05-04T07:54:53.593Z,4.90
2023-05-04T07:55:53.459Z,8.30
2023-05-04T07:56:53.445Z,6.00
2023-05-04T07:57:53.461Z,6.80
2023-05-04T07:58:53.425Z,10.30
2023-05-04T07:59:53.398Z,10.40
2023-05-04T08:00:53.407Z,13.80
2023-05-04T08:01:53.401Z,6.00
2023-05-04T08:02:53.430Z,6.10
2023-05-04T08:03:53.367Z,4.80
2023-05-04T08:04:53.349Z,6.30
2023-05-04T08:05:53.331Z,4.80
2023-05-04T08:06:53.316Z,5.10
2023-05-04T08:07:53.322Z,4.80
2023-05-04T08:08:53.302Z,5.30
2023-05-04T08:09:53.278Z,4.90
2023-05-04T08:10:53.514Z,7.90
2023-05-04T08:11:53.279Z,6.80
2023-05-04T08:12:53.297Z,4.50
2023-05-04T08:13:53.228Z,6.20
2023-05-04T08:14:53.215Z,6.00
2023-05-04T08:15:53.206Z,4.60
2023-05-04T08:16:53.216Z,5.00
2023-05-04T08:17:53.220Z,4.70
2023-05-04T08:18:53.326Z,5.90
2023-05-04T08:19:53.160Z,8.10
2023-05-04T08:20:53.129Z,6.90
2023-05-04T08:21:53.142Z,5.60
2023-05-04T08:22:53.104Z,6.90
2023-05-04T08:23:53.099Z,5.30
2023-05-04T08:24:53.106Z,4.40
2023-05-04T08:25:53.072Z,5.00
2023-05-04T08:27:06.610Z,7.80
2023-05-04T08:27:54.043Z,4.70
2023-05-04T08:28:53.028Z,5.20
2023-05-04T08:29:53.018Z,5.80
2023-05-04T08:30:53.011Z,4.80
2023-05-04T08:31:53.041Z,4.90
2023-05-04T08:32:52.985Z,4.60
2023-05-04T08:33:52.960Z,5.10
2023-05-04T08:34:52.953Z,6.50
2023-05-04T08:35:52.945Z,5.70
2023-05-04T08:36:52.930Z,5.00
2023-05-04T08:37:52.904Z,6.10
2023-05-04T08:38:52.897Z,4.30
2023-05-04T08:39:52.878Z,4.40
2023-05-04T08:40:52.881Z,4.60
2023-05-04T08:41:52.843Z,5.50
2023-05-04T08:42:52.839Z,5.10
2023-05-04T08:43:52.843Z,5.50
2023-05-04T08:44:52.828Z,8.00
2023-05-04T08:45:52.861Z,5.40
2023-05-04T08:46:52.790Z,4.80
2023-05-04T08:47:52.783Z,8.00
2023-05-04T08:48:52.763Z,9.20
2023-05-04T08:49:52.745Z,7.40
2023-05-04T08:50:52.742Z,10.70
2023-05-04T08:51:52.714Z,5.90
2023-05-04T08:52:52.703Z,4.60
2023-05-04T08:53:52.692Z,5.60
2023-05-04T08:54:52.691Z,4.60
2023-05-04T08:55:52.673Z,5.80
2023-05-04T08:56:52.695Z,5.80
2023-05-04T08:57:52.642Z,6.30
2023-05-04T08:58:52.662Z,4.80
2023-05-04T08:59:52.684Z,6.50
2023-05-04T09:00:52.660Z,5.50
2023-05-04T09:01:52.665Z,8.50
2023-05-04T09:02:52.695Z,11.90
2023-05-04T09:03:52.736Z,4.80
2023-05-04T09:04:52.564Z,5.30
2023-05-04T09:05:52.541Z,5.60
2023-05-04T09:06:52.531Z,6.90
2023-05-04T09:07:52.520Z,6.70
2023-05-04T09:08:52.504Z,4.50
2023-05-04T09:09:52.493Z,3.60
2023-05-04T09:10:52.476Z,4.60
2023-05-04T09:11:52.462Z,8.10
2023-05-04T09:12:52.484Z,7.30
2023-05-04T09:13:52.471Z,6.80
2023-05-04T09:14:52.436Z,4.70
2023-05-04T09:15:52.405Z,6.30
2023-05-04T09:16:52.429Z,6.30
2023-05-04T09:18:52.362Z,4.40
2023-05-04T09:19:52.346Z,7.20
2023-05-04T09:20:52.325Z,5.90
2023-05-04T09:21:52.333Z,7.30
2023-05-04T09:22:52.316Z,7.60
2023-05-04T09:23:52.399Z,5.30
2023-05-04T09:24:52.284Z,6.70
2023-05-04T09:25:52.280Z,5.90
2023-05-04T09:26:52.266Z,4.70
2023-05-04T09:27:52.250Z,8.10
2023-05-04T09:28:52.236Z,6.20
2023-05-04T09:29:52.217Z,5.60
2023-05-04T09:30:52.231Z,8.00
2023-05-04T09:31:52.206Z,4.20
2023-05-04T09:32:52.248Z,4.50
2023-05-04T09:33:53.518Z,6.70
2023-05-04T09:34:52.155Z,5.00
2023-05-04T09:35:52.144Z,4.40
2023-05-04T09:36:52.140Z,6.40
2023-05-04T09:37:52.105Z,4.70
2023-05-04T09:38:52.096Z,4.80
2023-05-04T09:39:52.092Z,5.20
2023-05-04T09:40:52.078Z,6.90
2023-05-04T09:41:52.078Z,5.00
2023-05-04T09:42:52.058Z,5.10
2023-05-04T09:43:52.036Z,5.50
2023-05-04T09:44:52.023Z,6.50
2023-05-04T09:45:52.040Z,3.80
2023-05-04T09:46:52.125Z,5.40
2023-05-04T10:03:30.083Z,3.10
2023-05-04T10:04:30.049Z,5.00
2023-05-04T10:05:30.130Z,5.40
2023-05-04T10:06:30.020Z,3.60
2023-05-04T10:07:30.023Z,4.60
2023-05-04T10:08:30.007Z,4.60
2023-05-04T10:09:29.987Z,3.60
2023-05-04T10:10:29.970Z,3.90
2023-05-04T10:11:29.945Z,6.60
2023-05-04T10:12:29.971Z,4.20
2023-05-04T10:13:29.928Z,5.30
2023-05-04T10:14:29.922Z,4.30
2023-05-04T10:15:29.912Z,3.90
2023-05-04T10:16:29.964Z,5.50
2023-05-04T10:17:29.875Z,3.10
2023-05-04T10:18:29.878Z,4.50
2023-05-04T10:19:29.848Z,3.20
2023-05-04T10:20:29.835Z,5.60
2023-05-04T10:21:29.822Z,6.20
2023-05-04T10:22:29.814Z,3.40
2023-05-04T10:23:29.804Z,5.20
2023-05-04T10:24:29.811Z,7.30
2023-05-04T10:25:29.764Z,3.40
2023-05-04T10:26:29.764Z,4.90
2023-05-04T10:27:29.736Z,6.40
2023-05-04T10:28:29.740Z,5.80
2023-05-04T10:29:29.775Z,4.20
2023-05-04T10:30:29.704Z,5.30
2023-05-04T10:31:29.766Z,3.60
2023-05-04T10:32:29.747Z,4.40
2023-05-04T10:33:29.681Z,5.50
2023-05-04T10:34:29.698Z,3.50
2023-05-04T10:35:29.653Z,5.00
2023-05-04T10:36:29.703Z,5.20
2023-05-04T10:37:29.626Z,3.90
2023-05-04T10:38:29.637Z,3.30
2023-05-04T10:39:29.606Z,4.60
2023-05-04T10:40:29.593Z,3.40
2023-05-04T10:41:29.571Z,3.90
2023-05-04T10:42:29.562Z,4.80
2023-05-04T10:43:29.563Z,3.50
2023-05-04T10:44:29.547Z,4.20
2023-05-04T10:45:29.526Z,2.70
2023-05-04T10:46:29.502Z,3.40
2023-05-04T10:47:29.535Z,5.70
2023-05-04T10:48:29.495Z,3.20
2023-05-04T10:49:29.539Z,2.80
2023-05-04T10:50:29.448Z,4.30
2023-05-04T10:51:35.943Z,4.20
2023-05-04T10:52:30.460Z,4.90
2023-05-04T10:53:29.438Z,5.80
2023-05-04T10:54:29.412Z,3.40
2023-05-04T10:55:29.433Z,5.00
2023-05-04T10:56:29.409Z,4.30
2023-05-04T10:57:29.375Z,4.80
2023-05-04T10:58:29.355Z,5.50
2023-05-04T10:59:29.347Z,6.80
2023-05-04T11:00:29.328Z,2.70
2023-05-04T11:01:29.344Z,5.30
2023-05-04T11:02:31.695Z,6.20
2023-05-04T11:03:29.387Z,5.30
2023-05-04T11:04:29.292Z,4.00
2023-05-04T11:05:29.254Z,3.60
2023-05-04T11:06:29.271Z,3.20
2023-05-04T11:07:29.253Z,6.10
2023-05-04T11:08:29.211Z,4.50
2023-05-04T11:09:29.215Z,4.20
2023-05-04T11:10:29.191Z,5.40
2023-05-04T11:11:29.251Z,3.80
2023-05-04T11:12:29.198Z,3.70
2023-05-04T11:13:29.161Z,4.00
2023-05-04T11:14:29.162Z,4.70
2023-05-04T11:15:29.134Z,3.30
2023-05-04T11:16:29.236Z,5.60
2023-05-04T11:17:29.094Z,3.10
2023-05-04T11:18:29.143Z,2.10
2023-05-04T11:19:29.086Z,2.90
2023-05-04T11:20:29.098Z,3.20
2023-05-04T11:21:29.071Z,3.10
2023-05-04T11:22:29.024Z,2.70
2023-05-04T11:23:29.054Z,3.20
2023-05-04T11:24:29.019Z,2.90
2023-05-04T11:25:29.032Z,2.70
2023-05-04T11:26:29.007Z,3.40
2023-05-04T11:27:28.981Z,3.30
2023-05-04T11:28:28.974Z,5.00
2023-05-04T11:29:28.942Z,3.50
2023-05-04T11:30:28.950Z,4.10
2023-05-04T11:31:28.988Z,1.60
2023-05-04T11:32:28.993Z,4.00
2023-05-04T11:33:28.901Z,3.60
2023-05-04T11:34:28.902Z,4.90
2023-05-04T11:35:28.887Z,5.90
2023-05-04T11:36:28.870Z,2.90
2023-05-04T11:37:28.841Z,2.70
2023-05-04T11:38:28.847Z,4.10
2023-05-04T11:39:28.833Z,2.70
2023-05-04T11:40:28.824Z,2.30
2023-05-04T11:41:28.792Z,3.00
2023-05-04T11:42:28.781Z,6.10
2023-05-04T11:43:28.774Z,2.40
2023-05-04T11:44:28.775Z,3.20
2023-05-04T11:45:28.731Z,4.30
2023-05-04T11:46:28.820Z,4.40
2023-05-04T11:47:28.761Z,3.80
2023-05-04T11:48:28.718Z,2.50
2023-05-04T11:49:28.708Z,3.30
2023-05-04T11:50:28.692Z,5.20
2023-05-04T11:51:28.659Z,4.30
2023-05-04T11:52:28.674Z,4.70
2023-05-04T11:53:28.650Z,3.20
2023-05-04T11:54:28.652Z,2.50
2023-05-04T11:55:28.629Z,2.70
2023-05-04T11:56:28.592Z,2.80
2023-05-04T11:57:28.596Z,2.70
2023-05-04T11:58:28.601Z,2.40
2023-05-04T11:59:28.568Z,2.00
2023-05-04T12:00:28.562Z,3.80
2023-05-04T12:01:28.565Z,3.10
2023-05-04T12:02:28.590Z,3.40
2023-05-04T12:03:43.176Z,6.90
2023-05-04T12:04:29.528Z,2.80
2023-05-04T12:05:28.560Z,2.80
2023-05-04T12:06:28.480Z,3.00
2023-05-04T12:07:28.476Z,5.20
2023-05-04T12:08:28.460Z,4.80
2023-05-04T12:09:28.438Z,2.00
2023-05-04T12:10:28.438Z,2.20
2023-05-04T12:11:28.410Z,2.10
2023-05-04T12:12:28.472Z,2.00
2023-05-04T12:13:28.378Z,3.00
2023-05-04T12:14:28.403Z,3.00
2023-05-04T12:15:28.363Z,4.20
2023-05-04T12:16:28.371Z,4.40
2023-05-04T12:17:28.404Z,2.20
2023-05-04T12:18:28.322Z,3.10
2023-05-04T12:19:28.327Z,2.30
2023-05-04T12:20:28.321Z,2.80
2023-05-04T12:21:28.301Z,1.80
2023-05-04T12:22:28.330Z,3.10
2023-05-04T12:23:28.271Z,2.30
2023-05-04T12:24:28.269Z,3.80
2023-05-04T12:25:28.246Z,3.00
2023-05-04T12:26:28.245Z,3.90
2023-05-04T12:27:28.221Z,2.70
2023-05-04T12:28:28.226Z,3.70
2023-05-04T12:29:28.200Z,4.40
2023-05-04T12:30:28.171Z,3.40
2023-05-04T12:31:28.211Z,3.40
2023-05-04T12:32:28.188Z,2.50
2023-05-04T12:33:28.142Z,3.00
2023-05-04T12:34:28.107Z,3.10
2023-05-04T12:35:28.125Z,5.90
2023-05-04T12:36:28.104Z,2.30
2023-05-04T12:37:28.077Z,4.20
2023-05-04T12:38:28.057Z,2.20
2023-05-04T12:39:28.079Z,4.10
2023-05-04T12:40:28.908Z,1.70
2023-05-04T12:41:28.047Z,3.10
2023-05-04T12:42:28.006Z,2.00
2023-05-04T12:43:28.039Z,6.20
2023-05-04T12:44:28.022Z,2.50
2023-05-04T12:45:28.001Z,2.20
2023-05-04T12:46:28.024Z,2.00
2023-05-04T12:47:27.984Z,2.20
2023-05-04T12:48:27.942Z,2.60
2023-05-04T12:49:27.936Z,2.80
2023-05-04T12:50:27.927Z,2.10
2023-05-04T12:51:27.922Z,1.50
2023-05-04T12:52:27.882Z,2.70
2023-05-04T12:53:27.881Z,3.20
2023-05-04T12:54:27.871Z,2.30
2023-05-04T12:55:27.872Z,2.20
2023-05-04T12:56:27.847Z,1.50
2023-05-04T12:57:27.837Z,3.60
2023-05-04T12:58:27.814Z,4.70
2023-05-04T12:59:27.832Z,1.80
2023-05-04T13:00:27.789Z,2.50
2023-05-04T13:01:27.802Z,1.60
2023-05-04T13:02:27.779Z,2.40
2023-05-04T13:03:27.902Z,1.50
2023-05-04T13:04:27.760Z,1.90
2023-05-04T13:05:27.734Z,3.00
2023-05-04T13:06:27.719Z,2.00
2023-05-04T13:07:27.712Z,2.10
2023-05-04T13:08:27.709Z,2.30
2023-05-04T13:09:27.690Z,3.20
2023-05-04T13:10:27.659Z,2.70
2023-05-04T13:11:27.654Z,1.40
2023-05-04T13:12:27.641Z,1.30
2023-05-04T13:13:27.631Z,3.00
2023-05-04T13:14:27.616Z,2.30
2023-05-04T13:15:27.602Z,3.10
2023-05-04T13:16:27.708Z,4.90
2023-05-04T13:17:27.625Z,1.90
2023-05-04T13:18:27.899Z,2.70
2023-05-04T13:19:27.597Z,3.20
2023-05-04T13:20:27.550Z,2.10
2023-05-04T13:21:27.533Z,1.40
2023-05-04T13:22:27.524Z,3.20
2023-05-04T13:23:27.531Z,1.80
2023-05-04T13:24:27.489Z,2.00
2023-05-04T13:25:27.490Z,1.90
2023-05-04T13:26:27.481Z,1.60
2023-05-04T13:27:27.488Z,1.30
2023-05-04T13:28:27.456Z,1.40
2023-05-04T13:29:27.427Z,2.30
2023-05-04T13:30:27.417Z,2.00
2023-05-04T13:31:27.451Z,2.80
2023-05-04T13:32:27.473Z,2.80
2023-05-04T13:33:29.460Z,1.60
2023-05-04T13:34:27.369Z,2.40
2023-05-04T13:35:27.355Z,4.50
2023-05-04T13:36:27.349Z,2.60
2023-05-04T13:37:27.335Z,1.70
2023-05-04T13:38:27.464Z,4.50
2023-05-04T13:39:27.306Z,2.00
2023-05-04T13:40:27.300Z,1.90